Track Кудряшов Максим

Time Latitude Longitude Accuracy (66% radius in meters) Altitude (meters) Speed (km/hour) Bearing (degrees) Battery (%) GPS flag
07:52:59 57.207232 60.115253 9.6480007171631 299.17431640625 1.0900000333786 100.69999694824 54 1 delete
07:52:53 57.207278 60.115096 9.6480007171631 296.88391113281 1.0800000429153 72.300003051758 54 1 delete
07:52:52 57.207282 60.115070 9.6480007171631 296.56756591797 1.0800000429153 92.400001525879 54 1 delete
07:52:47 57.207354 60.114990 9.6480007171631 296.55126953125 1.1499999761581 186.80000305176 54 1 delete
07:52:41 57.207439 60.115052 9.6480007171631 297.95520019531 1.0900000333786 190.19999694824 54 1 delete
07:52:35 57.207536 60.115118 9.6480007171631 299.79168701172 1.3500000238419 209 54 1 delete
07:52:30 57.207603 60.115170 9.6480007171631 300.83508300781 1.6599999666214 195.69999694824 54 1 delete
07:52:29 57.207624 60.115180 9.6480007171631 298.97912597656 1.9099999666214 197.5 54 1 delete
07:52:22 57.207676 60.115341 10.720000267029 297.67651367188 1.1699999570847 128.80000305176 54 1 delete
07:52:19 57.207678 60.115295 9.6480007171631 296.06610107422 1.5199999809265 86.699996948242 54 1 delete
07:52:14 57.207670 60.115168 9.6480007171631 296.49694824219 1.1599999666214 132.39999389648 54 1 delete
07:52:08 57.207697 60.115031 9.6480007171631 294.15026855469 1.0900000333786 121.59999847412 54 1 delete
07:52:06 57.207718 60.115008 9.6480007171631 294.76684570312 1.0900000333786 145.80000305176 54 1 delete
07:51:57 57.207757 60.114870 4.2880001068115 291.50531005859 1.0900000333786 90.5 54 1 delete
07:51:55 57.207747 60.114841 4.2880001068115 293.55578613281 1.0199999809265 93.800003051758 54 1 delete
07:51:47 57.207742 60.114669 5.3600001335144 295.78283691406 2.6400001049042 139.60000610352 54 1 delete
07:51:39 57.207789 60.114504 4.2880001068115 290.24652099609 1.0299999713898 118.40000152588 54 1 delete
07:51:36 57.207814 60.114429 3.2160000801086 289.48004150391 1.0700000524521 140.39999389648 54 1 delete
07:51:33 57.207859 60.114367 3.2160000801086 290.31915283203 1.1499999761581 220.60000610352 54 1 delete
07:51:28 57.207949 60.114422 3.2160000801086 291.64465332031 3.3800001144409 221.19999694824 54 1 delete
07:51:25 57.208017 60.114493 4.2880001068115 291.00756835938 1.0900000333786 195.69999694824 54 1 delete
07:51:23 57.208037 60.114502 3.2160000801086 289.88641357422 1.2200000286102 161.10000610352 54 1 delete
07:51:16 57.208097 60.114364 3.2160000801086 290.86877441406 1.710000038147 181.30000305176 54 1 delete
07:51:14 57.208138 60.114350 3.2160000801086 290.58154296875 1.5099999904633 148.89999389648 54 1 delete
07:51:05 57.208160 60.114242 3.2160000801086 290.75061035156 1.1399999856949 196.69999694824 54 1 delete
07:51:03 57.208185 60.114246 3.2160000801086 290.32885742188 1.5299999713898 196.60000610352 54 1 delete
07:50:59 57.208258 60.114267 3.2160000801086 289.5244140625 4.4400000572205 243 54 1 delete
07:50:55 57.208286 60.114426 4.2880001068115 291.93798828125 4.75 241.19999694824 54 1 delete
07:50:52 57.208308 60.114545 3.2160000801086 292.79907226562 0 0 54 1 delete
07:50:46 57.208341 60.114595 10.720000267029 292.4892578125 0.17000000178814 275.70001220703 54 1 delete
07:50:42 57.208365 60.114668 10.720000267029 292.67419433594 3.9100000858307 272.5 54 1 delete
07:50:41 57.208369 60.114756 10.720000267029 293.67126464844 4.0199999809265 274.79998779297 54 1 delete
07:50:38 57.208373 60.114950 10.720000267029 293.54345703125 1.9800000190735 294.5 54 1 delete
07:50:34 57.208413 60.115119 9.6480007171631 295.68933105469 2.9500000476837 242.19999694824 54 1 delete
07:50:31 57.208469 60.115276 9.6480007171631 298.00274658203 1.7799999713898 248.69999694824 54 1 delete
07:50:26 57.208524 60.115448 9.6480007171631 300.97979736328 1.5900000333786 248.30000305176 54 1 delete
07:50:22 57.208597 60.115583 9.6480007171631 300.40106201172 2.210000038147 205.30000305176 54 1 delete
07:50:20 57.208651 60.115625 3.2160000801086 300.03234863281 2.3599998950958 213.5 54 1 delete
07:50:18 57.208690 60.115661 3.2160000801086 301.58685302734 1.3400000333786 212.5 54 1 delete
07:50:12 57.208768 60.115751 4.2880001068115 301.94567871094 1.4400000572205 204.89999389648 54 1 delete
07:50:09 57.208813 60.115806 4.2880001068115 301.47082519531 1.789999961853 238.80000305176 54 1 delete
07:50:07 57.208847 60.115861 4.2880001068115 301.951171875 2.2200000286102 239 54 1 delete
07:50:02 57.208884 60.116016 3.2160000801086 301.94274902344 2.4200000762939 245.19999694824 54 1 delete
07:49:58 57.208942 60.116147 3.2160000801086 301.72961425781 2.2400000095367 267.79998779297 54 1 delete
07:49:54 57.208967 60.116202 3.2160000801086 304.38659667969 1.6499999761581 134.69999694824 54 1 delete
07:49:48 57.209003 60.116069 4.2880001068115 302.64636230469 0.34000000357628 229.19999694824 54 1 delete
07:49:46 57.208970 60.116028 7.5040001869202 304.13690185547 3.8399999141693 252.69999694824 54 1 delete
07:49:44 57.209035 60.116151 5.3600001335144 305.37036132812 4.6100001335144 275.89999389648 54 1 delete
07:49:42 57.209036 60.116342 5.3600001335144 304.64514160156 5.6599998474121 289.89999389648 54 1 delete
07:49:37 57.208902 60.116933 3.2160000801086 305.65960693359 0 0 54 1 delete